createdAt,value
2022-09-07T00:01:56.255Z,17.11
2022-09-07T00:04:22.855Z,17.03
2022-09-07T00:06:49.460Z,17.02
2022-09-07T00:09:15.967Z,16.98
2022-09-07T00:11:42.477Z,16.96
2022-09-07T00:14:09.223Z,16.96
2022-09-07T00:16:35.800Z,16.96
2022-09-07T00:19:04.498Z,16.96
2022-09-07T00:21:31.449Z,16.95
2022-09-07T00:23:58.438Z,16.95
2022-09-07T00:26:27.737Z,16.94
2022-09-07T00:28:58.354Z,16.93
2022-09-07T00:31:25.649Z,16.92
2022-09-07T00:33:53.845Z,16.92
2022-09-07T00:36:21.828Z,16.94
2022-09-07T00:38:48.824Z,16.98
2022-09-07T00:41:16.314Z,17.01
2022-09-07T00:43:46.086Z,16.97
2022-09-07T00:46:18.485Z,16.98
2022-09-07T00:49:16.732Z,16.99
2022-09-07T00:51:57.902Z,16.99
2022-09-07T00:54:41.710Z,16.98
2022-09-07T00:57:09.282Z,16.97
2022-09-07T00:59:41.828Z,16.95
2022-09-07T01:02:08.756Z,16.91
2022-09-07T01:04:36.845Z,16.84
2022-09-07T01:07:05.884Z,16.80
2022-09-07T01:09:33.228Z,16.81
2022-09-07T01:12:01.894Z,16.79
2022-09-07T01:14:32.942Z,16.78
2022-09-07T01:17:36.933Z,16.77
2022-09-07T01:20:12.353Z,16.77
2022-09-07T01:23:04.487Z,16.79
2022-09-07T01:25:50.141Z,16.76
2022-09-07T01:28:28.695Z,16.73
2022-09-07T01:30:58.912Z,16.74
2022-09-07T01:33:52.229Z,16.74
2022-09-07T01:36:27.798Z,16.73
2022-09-07T01:38:57.416Z,16.74
2022-09-07T01:41:31.118Z,16.74
2022-09-07T01:44:28.261Z,16.73
2022-09-07T01:47:14.083Z,16.73
2022-09-07T01:49:53.202Z,16.72
2022-09-07T01:52:51.892Z,16.76
2022-09-07T01:55:31.866Z,16.79
2022-09-07T01:58:10.928Z,16.77
2022-09-07T02:00:40.586Z,16.77
2022-09-07T02:03:14.555Z,16.76
2022-09-07T02:06:02.164Z,16.77
2022-09-07T02:08:45.867Z,16.75
2022-09-07T02:11:28.034Z,16.76
2022-09-07T02:13:59.914Z,16.75
2022-09-07T02:16:28.733Z,16.77
2022-09-07T02:19:00.397Z,16.71
2022-09-07T02:21:50.166Z,16.72
2022-09-07T02:24:23.497Z,16.64
2022-09-07T02:26:53.171Z,16.50
2022-09-07T02:29:19.857Z,16.45
2022-09-07T02:31:47.536Z,16.45
2022-09-07T02:34:14.224Z,16.47
2022-09-07T02:36:45.912Z,16.51
2022-09-07T02:39:13.017Z,16.56
2022-09-07T02:41:42.882Z,16.57
2022-09-07T02:44:16.066Z,16.56
2022-09-07T02:47:20.061Z,16.52
2022-09-07T02:50:07.882Z,16.52
2022-09-07T02:52:50.936Z,16.56
2022-09-07T02:55:36.504Z,16.52
2022-09-07T02:58:46.074Z,16.51
2022-09-07T03:01:24.053Z,16.47
2022-09-07T03:04:37.193Z,16.46
2022-09-07T03:07:14.365Z,16.44
2022-09-07T03:09:54.957Z,16.43
2022-09-07T03:12:21.863Z,16.42
2022-09-07T03:14:48.693Z,16.46
2022-09-07T03:17:15.351Z,16.47
2022-09-07T03:19:41.878Z,16.43
2022-09-07T03:22:08.674Z,16.42
2022-09-07T03:24:36.883Z,16.47
2022-09-07T03:27:03.529Z,16.38
2022-09-07T03:29:30.380Z,16.39
2022-09-07T03:31:56.910Z,16.37
2022-09-07T03:34:23.462Z,16.32
2022-09-07T03:36:49.941Z,16.31
2022-09-07T03:39:16.486Z,16.24
2022-09-07T03:41:43.041Z,16.24
2022-09-07T03:44:10.042Z,16.22
2022-09-07T03:46:36.628Z,16.24
2022-09-07T03:49:03.356Z,16.25
2022-09-07T03:51:29.933Z,16.27
2022-09-07T03:53:57.521Z,16.26
2022-09-07T03:56:25.863Z,16.24
2022-09-07T03:58:54.276Z,16.21
2022-09-07T04:01:23.410Z,16.23
2022-09-07T04:03:50.377Z,16.24
2022-09-07T04:06:18.022Z,16.23
2022-09-07T04:08:44.764Z,16.21
2022-09-07T04:11:15.261Z,16.19
2022-09-07T04:13:42.638Z,16.21
2022-09-07T04:16:14.413Z,16.18
2022-09-07T04:18:41.471Z,16.18
2022-09-07T04:21:08.346Z,16.19
2022-09-07T04:23:36.876Z,16.18
2022-09-07T04:26:03.360Z,16.20
2022-09-07T04:28:30.083Z,16.25
2022-09-07T04:31:00.896Z,16.23
2022-09-07T04:33:27.749Z,16.21
2022-09-07T04:35:54.350Z,16.20
2022-09-07T04:38:20.921Z,16.23
2022-09-07T04:40:47.471Z,16.25
2022-09-07T04:43:14.028Z,16.27
2022-09-07T04:45:40.646Z,16.22
2022-09-07T04:48:07.499Z,16.20
2022-09-07T04:50:34.329Z,16.19
2022-09-07T04:53:00.818Z,16.18
2022-09-07T04:55:27.363Z,16.14
2022-09-07T04:57:53.938Z,16.13
2022-09-07T05:00:20.625Z,16.21
2022-09-07T05:02:47.226Z,16.20
2022-09-07T05:05:13.973Z,16.20
2022-09-07T05:07:40.584Z,16.21
2022-09-07T05:10:07.528Z,16.20
2022-09-07T05:12:34.040Z,16.17
2022-09-07T05:15:00.905Z,16.02
2022-09-07T05:17:28.250Z,16.13
2022-09-07T05:19:55.239Z,16.29
2022-09-07T05:22:22.443Z,16.29
2022-09-07T05:24:49.199Z,16.39
2022-09-07T05:27:15.779Z,16.42
2022-09-07T05:32:29.360Z,16.46
2022-09-07T05:34:56.207Z,16.51
2022-09-07T05:37:22.754Z,16.60
2022-09-07T05:39:49.365Z,16.64
2022-09-07T05:42:16.214Z,16.68
2022-09-07T05:47:09.477Z,16.79
2022-09-07T05:49:36.000Z,16.77
2022-09-07T05:52:02.807Z,16.94
2022-09-07T05:54:29.342Z,17.00
2022-09-07T05:56:55.908Z,17.19
2022-09-07T05:59:22.493Z,17.37
2022-09-07T06:01:49.166Z,17.37
2022-09-07T06:04:15.735Z,17.52
2022-09-07T06:06:43.412Z,17.54
2022-09-07T06:09:14.542Z,17.52
2022-09-07T06:11:41.104Z,17.46
2022-09-07T06:14:07.646Z,17.54
2022-09-07T06:16:35.275Z,17.62
2022-09-07T06:19:06.354Z,17.62
2022-09-07T06:21:36.859Z,17.68
2022-09-07T06:24:04.925Z,17.81
2022-09-07T06:26:31.969Z,17.93
2022-09-07T06:28:58.740Z,18.11
2022-09-07T06:31:25.744Z,18.25
2022-09-07T06:33:54.703Z,18.39
2022-09-07T06:36:23.652Z,18.39
2022-09-07T06:38:51.254Z,18.45
2022-09-07T06:44:07.466Z,18.48
2022-09-07T06:49:20.644Z,18.64
2022-09-07T06:51:47.177Z,18.64
2022-09-07T06:57:00.313Z,18.82
2022-09-07T06:59:26.842Z,18.96
2022-09-07T07:01:53.455Z,19.00
2022-09-07T07:04:20.229Z,19.12
2022-09-07T07:06:46.804Z,19.18
2022-09-07T07:09:14.207Z,19.23
2022-09-07T07:11:40.967Z,19.16
2022-09-07T07:14:07.523Z,19.13
2022-09-07T07:16:36.212Z,19.14
2022-09-07T07:19:02.819Z,19.17
2022-09-07T07:21:42.866Z,19.25
2022-09-07T07:24:15.940Z,19.22
2022-09-07T07:26:48.534Z,19.48
2022-09-07T07:29:18.553Z,19.76
2022-09-07T07:31:47.066Z,19.98
2022-09-07T07:34:13.879Z,20.13
2022-09-07T07:36:41.587Z,20.33
2022-09-07T07:39:08.493Z,20.76
2022-09-07T07:41:56.485Z,21.34
2022-09-07T07:44:25.430Z,21.99
2022-09-07T07:46:52.088Z,22.50
2022-09-07T07:49:19.140Z,22.97
2022-09-07T07:54:36.877Z,23.47
2022-09-07T07:57:05.284Z,23.87
2022-09-07T07:59:31.920Z,24.20
2022-09-07T08:02:04.408Z,24.38
2022-09-07T08:04:32.836Z,24.93
2022-09-07T08:06:59.400Z,25.40
2022-09-07T08:09:26.146Z,25.84
2022-09-07T08:11:52.824Z,26.29
2022-09-07T08:14:19.348Z,26.65
2022-09-07T08:16:46.213Z,26.42
2022-09-07T08:19:12.764Z,27.12
2022-09-07T08:21:39.233Z,27.50
2022-09-07T08:24:05.841Z,27.93
2022-09-07T08:26:32.752Z,27.60
2022-09-07T08:28:59.242Z,27.64
2022-09-07T08:31:25.886Z,27.48
2022-09-07T08:33:52.438Z,27.63
2022-09-07T08:36:21.003Z,27.13
2022-09-07T08:38:48.620Z,27.54
2022-09-07T08:41:34.777Z,27.67
2022-09-07T08:44:28.003Z,28.17
2022-09-07T08:47:13.172Z,28.62
2022-09-07T08:49:51.751Z,29.05
2022-09-07T08:52:27.606Z,29.35
2022-09-07T08:55:05.128Z,29.54
2022-09-07T08:57:35.511Z,29.53
2022-09-07T09:00:14.407Z,29.59
2022-09-07T09:02:44.387Z,29.37
2022-09-07T09:05:40.525Z,29.56
2022-09-07T09:08:12.261Z,29.59
2022-09-07T09:10:41.759Z,29.72
2022-09-07T09:13:22.472Z,29.45
2022-09-07T09:16:13.925Z,29.34
2022-09-07T09:19:19.707Z,30.02
2022-09-07T09:21:46.484Z,30.43
2022-09-07T09:24:19.382Z,30.58
2022-09-07T09:26:53.231Z,30.82
2022-09-07T09:29:22.763Z,29.71
2022-09-07T09:31:49.478Z,29.57
2022-09-07T09:34:19.132Z,30.19
2022-09-07T09:36:56.635Z,30.42
2022-09-07T09:39:33.189Z,30.14
2022-09-07T09:42:11.904Z,29.78
2022-09-07T09:44:39.197Z,30.22
2022-09-07T09:49:54.422Z,30.36
2022-09-07T09:52:34.779Z,30.02
2022-09-07T10:03:59.384Z,30.73
2022-09-07T10:06:28.277Z,31.48
2022-09-07T10:09:01.912Z,31.00
2022-09-07T10:14:42.610Z,29.88
2022-09-07T10:17:19.327Z,30.04
2022-09-07T10:19:45.992Z,30.56
2022-09-07T10:22:24.787Z,30.68
2022-09-07T10:24:52.290Z,30.37
2022-09-07T10:27:32.198Z,31.02
2022-09-07T10:29:59.402Z,30.52
2022-09-07T10:32:47.923Z,30.52
2022-09-07T10:35:17.246Z,30.26
2022-09-07T10:38:03.962Z,30.35
2022-09-07T10:40:40.657Z,30.29
2022-09-07T10:43:22.086Z,30.61
2022-09-07T10:49:38.499Z,31.04
2022-09-07T10:52:25.879Z,30.19
2022-09-07T10:55:23.852Z,30.00
2022-09-07T10:58:08.045Z,29.54
2022-09-07T11:00:47.737Z,30.05
2022-09-07T11:03:26.281Z,30.43
2022-09-07T11:06:00.961Z,30.97
2022-09-07T11:09:17.684Z,31.42
2022-09-07T11:12:05.715Z,32.14
2022-09-07T11:14:52.888Z,32.23
2022-09-07T11:17:24.001Z,32.76
2022-09-07T11:20:12.469Z,32.90
2022-09-07T11:22:44.729Z,32.43
2022-09-07T11:25:42.169Z,32.10
2022-09-07T11:28:17.577Z,32.06
2022-09-07T11:30:49.985Z,32.46
2022-09-07T11:33:25.616Z,32.75
2022-09-07T11:36:11.967Z,32.06
2022-09-07T11:38:48.499Z,32.21
2022-09-07T11:41:31.881Z,32.75
2022-09-07T11:44:24.818Z,32.93
2022-09-07T11:46:54.728Z,32.87
2022-09-07T11:49:28.757Z,32.00
2022-09-07T11:52:09.598Z,31.84
2022-09-07T11:54:48.889Z,32.49
2022-09-07T11:57:15.382Z,32.64
2022-09-07T12:00:01.966Z,32.60
2022-09-07T12:03:00.267Z,32.53
2022-09-07T12:05:55.522Z,33.31
2022-09-07T12:08:48.846Z,33.31
2022-09-07T12:11:39.721Z,33.63
2022-09-07T12:14:40.813Z,32.17
2022-09-07T12:17:24.861Z,32.73
2022-09-07T12:20:09.372Z,32.74
2022-09-07T12:22:36.120Z,32.42
2022-09-07T12:25:10.329Z,32.21
2022-09-07T12:27:38.321Z,31.46
2022-09-07T12:30:04.980Z,31.76
2022-09-07T12:33:01.800Z,31.71
2022-09-07T12:35:28.390Z,31.29
2022-09-07T12:37:59.264Z,31.43
2022-09-07T12:40:28.811Z,31.15
2022-09-07T12:43:16.155Z,30.86
2022-09-07T12:45:42.605Z,31.06
2022-09-07T12:48:15.381Z,31.71
2022-09-07T12:51:10.283Z,31.75
2022-09-07T12:54:01.695Z,30.29
2022-09-07T12:56:41.960Z,30.80
2022-09-07T12:59:33.490Z,30.98
2022-09-07T13:02:03.127Z,30.87
2022-09-07T13:04:46.488Z,30.57
2022-09-07T13:07:38.053Z,30.24
2022-09-07T13:10:23.512Z,30.41
2022-09-07T13:12:53.171Z,30.63
2022-09-07T13:15:41.483Z,31.14
2022-09-07T13:18:27.087Z,30.98
2022-09-07T13:21:08.918Z,30.87
2022-09-07T13:23:41.076Z,30.65
2022-09-07T13:26:10.990Z,30.30
2022-09-07T13:28:40.429Z,30.05
2022-09-07T13:31:28.876Z,29.96
2022-09-07T13:33:57.236Z,30.25
2022-09-07T13:36:32.256Z,30.82
2022-09-07T13:38:59.302Z,30.73
2022-09-07T13:41:32.082Z,30.12
2022-09-07T13:44:01.392Z,29.14
2022-09-07T13:46:35.217Z,28.86
2022-09-07T13:49:41.150Z,28.85
2022-09-07T13:52:16.382Z,28.97
2022-09-07T13:54:45.555Z,29.01
2022-09-07T13:57:14.701Z,29.09
2022-09-07T13:59:42.779Z,28.87
2022-09-07T14:02:32.643Z,28.99
2022-09-07T14:05:03.001Z,29.07
2022-09-07T14:07:30.898Z,29.07
2022-09-07T14:10:06.325Z,28.97
2022-09-07T14:12:44.297Z,28.89
2022-09-07T14:15:21.987Z,29.04
2022-09-07T14:17:52.027Z,29.37
2022-09-07T14:20:19.192Z,29.49
2022-09-07T14:22:49.416Z,29.63
2022-09-07T14:25:19.742Z,29.39
2022-09-07T14:27:47.914Z,28.68
2022-09-07T14:30:23.936Z,28.69
2022-09-07T14:32:53.479Z,28.37
2022-09-07T14:35:23.026Z,28.45
2022-09-07T14:37:50.794Z,28.73
2022-09-07T14:40:25.953Z,28.83
2022-09-07T14:42:55.934Z,28.65
2022-09-07T14:45:22.377Z,29.04
2022-09-07T14:47:52.275Z,29.24
2022-09-07T14:50:21.647Z,29.14
2022-09-07T14:53:34.319Z,29.04
2022-09-07T14:55:39.769Z,28.85
2022-09-07T14:58:15.604Z,28.47
2022-09-07T15:00:43.614Z,28.48
2022-09-07T15:03:32.131Z,28.49
2022-09-07T15:06:01.353Z,28.15
2022-09-07T15:08:41.513Z,28.12
2022-09-07T15:11:35.676Z,28.06
2022-09-07T15:14:08.652Z,28.02
2022-09-07T15:16:39.420Z,28.02
2022-09-07T15:19:15.227Z,28.19
2022-09-07T15:21:43.494Z,28.26
2022-09-07T15:24:10.768Z,28.22
2022-09-07T15:29:29.093Z,28.31
2022-09-07T15:32:03.328Z,28.33
2022-09-07T15:34:31.614Z,28.35
2022-09-07T15:37:00.882Z,28.39
2022-09-07T15:39:30.351Z,28.46
2022-09-07T15:41:58.165Z,28.62
2022-09-07T15:44:28.407Z,28.71
2022-09-07T15:49:49.282Z,28.47
2022-09-07T15:52:17.142Z,28.47
2022-09-07T15:54:44.129Z,28.37
2022-09-07T15:59:57.610Z,28.33
2022-09-07T16:05:10.862Z,28.17
2022-09-07T16:10:24.576Z,27.79
2022-09-07T16:15:45.890Z,27.59
2022-09-07T16:18:18.052Z,27.55
2022-09-07T16:20:45.511Z,27.37
2022-09-07T16:23:15.235Z,27.44
2022-09-07T16:25:54.309Z,27.28
2022-09-07T16:28:20.945Z,27.30
2022-09-07T16:30:48.183Z,27.33
2022-09-07T16:33:14.945Z,27.35
2022-09-07T16:35:41.494Z,27.28
2022-09-07T16:40:54.899Z,27.29
2022-09-07T16:43:21.676Z,27.34
2022-09-07T16:46:03.928Z,27.38
2022-09-07T16:48:32.415Z,27.32
2022-09-07T16:51:02.309Z,27.33
2022-09-07T16:53:31.578Z,27.18
2022-09-07T16:56:04.719Z,27.09
2022-09-07T16:58:37.775Z,26.87
2022-09-07T17:01:06.670Z,26.78
2022-09-07T17:03:33.942Z,26.80
2022-09-07T17:06:01.158Z,26.66
2022-09-07T17:08:28.232Z,26.59
2022-09-07T17:11:09.888Z,26.60
2022-09-07T17:13:38.149Z,26.52
2022-09-07T17:16:08.041Z,26.54
2022-09-07T17:21:21.978Z,26.41
2022-09-07T17:23:54.880Z,26.39
2022-09-07T17:26:26.046Z,26.36
2022-09-07T17:28:54.989Z,26.32
2022-09-07T17:34:13.416Z,26.01
2022-09-07T17:36:43.274Z,26.15
2022-09-07T17:39:18.861Z,26.11
2022-09-07T17:41:47.836Z,26.12
2022-09-07T17:44:14.609Z,26.20
2022-09-07T17:46:41.175Z,26.03
2022-09-07T17:49:12.481Z,25.94
2022-09-07T17:51:39.528Z,25.80
2022-09-07T17:54:11.702Z,25.69
2022-09-07T17:56:41.730Z,25.66
2022-09-07T18:01:56.341Z,25.48
2022-09-07T18:04:23.444Z,25.39
2022-09-07T18:06:50.456Z,25.30
2022-09-07T18:09:19.988Z,25.21
2022-09-07T18:11:48.658Z,25.09
2022-09-07T18:14:21.167Z,25.01
2022-09-07T18:16:50.994Z,24.90
2022-09-07T18:19:21.400Z,24.82
2022-09-07T18:21:48.855Z,24.67
2022-09-07T18:24:21.165Z,24.55
2022-09-07T18:26:51.300Z,24.44
2022-09-07T18:29:36.851Z,24.43
2022-09-07T18:32:09.882Z,24.32
2022-09-07T18:34:40.768Z,24.21
2022-09-07T18:37:08.380Z,24.15
2022-09-07T18:39:35.906Z,24.07
2022-09-07T18:42:10.468Z,24.00
2022-09-07T18:47:37.720Z,23.77
2022-09-07T18:50:05.250Z,23.70
2022-09-07T18:52:52.079Z,23.77
2022-09-07T18:55:39.494Z,23.71
2022-09-07T18:58:12.670Z,23.60
2022-09-07T19:01:07.140Z,23.71
2022-09-07T19:04:01.622Z,23.64
2022-09-07T19:06:28.235Z,23.52
2022-09-07T19:08:56.307Z,23.54
2022-09-07T19:12:28.027Z,23.56
2022-09-07T19:14:54.733Z,23.53
2022-09-07T19:17:21.277Z,23.51
2022-09-07T19:19:48.738Z,23.51
2022-09-07T19:22:15.373Z,23.51
2022-09-07T19:24:41.906Z,23.49
2022-09-07T19:27:08.437Z,23.45
2022-09-07T19:29:34.982Z,23.43
2022-09-07T19:32:04.651Z,23.40
2022-09-07T19:34:35.865Z,23.40
2022-09-07T19:37:04.065Z,23.30
2022-09-07T19:39:30.709Z,23.09
2022-09-07T19:41:57.366Z,23.10
2022-09-07T19:44:24.160Z,22.96
2022-09-07T19:46:50.838Z,22.92
2022-09-07T19:49:17.855Z,22.86
2022-09-07T19:51:44.654Z,22.84
2022-09-07T19:54:12.075Z,22.78
2022-09-07T19:56:40.725Z,22.57
2022-09-07T19:59:07.630Z,22.64
2022-09-07T20:01:35.196Z,22.53
2022-09-07T20:04:08.008Z,22.32
2022-09-07T20:06:34.940Z,22.28
2022-09-07T20:09:01.948Z,22.19
2022-09-07T20:11:29.215Z,22.03
2022-09-07T20:13:57.148Z,22.02
2022-09-07T20:16:24.819Z,21.97
2022-09-07T20:18:51.478Z,21.94
2022-09-07T20:21:23.345Z,21.92
2022-09-07T20:23:50.725Z,21.90
2022-09-07T20:26:19.887Z,21.91
2022-09-07T20:28:46.888Z,21.98
2022-09-07T20:31:16.023Z,21.90
2022-09-07T20:33:44.503Z,21.94
2022-09-07T20:36:13.743Z,22.07
2022-09-07T20:38:56.519Z,22.08
2022-09-07T20:41:28.913Z,22.03
2022-09-07T20:43:58.375Z,22.07
2022-09-07T20:46:25.386Z,22.10
2022-09-07T20:48:52.234Z,22.12
2022-09-07T20:51:21.310Z,22.00
2022-09-07T20:53:49.469Z,21.93
2022-09-07T20:56:23.775Z,21.94
2022-09-07T20:58:58.042Z,21.96
2022-09-07T21:01:24.790Z,21.95
2022-09-07T21:03:53.544Z,21.92
2022-09-07T21:06:21.550Z,21.85
2022-09-07T21:08:49.102Z,21.74
2022-09-07T21:11:17.321Z,21.74
2022-09-07T21:13:44.570Z,21.64
2022-09-07T21:16:13.891Z,21.55
2022-09-07T21:18:41.367Z,21.51
2022-09-07T21:21:23.169Z,21.50
2022-09-07T21:23:55.577Z,21.40
2022-09-07T21:26:22.128Z,21.34
2022-09-07T21:28:57.538Z,21.34
2022-09-07T21:31:24.825Z,21.24
2022-09-07T21:33:55.902Z,21.26
2022-09-07T21:36:22.461Z,21.23
2022-09-07T21:38:48.996Z,21.15
2022-09-07T21:41:17.866Z,21.17
2022-09-07T21:43:44.333Z,21.21
2022-09-07T21:46:17.247Z,21.17
2022-09-07T21:48:47.081Z,21.17
2022-09-07T21:51:14.837Z,21.15
2022-09-07T21:53:42.016Z,21.18
2022-09-07T21:56:11.935Z,21.23
2022-09-07T21:58:40.017Z,21.18
2022-09-07T22:01:17.009Z,21.15
2022-09-07T22:03:45.710Z,21.12
2022-09-07T22:06:12.651Z,21.07
2022-09-07T22:08:41.437Z,21.05
2022-09-07T22:11:11.076Z,20.97
2022-09-07T22:13:38.425Z,20.88
2022-09-07T22:16:05.484Z,20.78
2022-09-07T22:18:32.481Z,20.74
2022-09-07T22:21:09.846Z,20.69
2022-09-07T22:23:39.008Z,20.63
2022-09-07T22:26:06.298Z,20.60
2022-09-07T22:28:32.936Z,20.49
2022-09-07T22:31:17.626Z,20.45
2022-09-07T22:33:45.223Z,20.44
2022-09-07T22:36:20.894Z,20.39
2022-09-07T22:38:49.684Z,20.37
2022-09-07T22:41:18.458Z,20.30
2022-09-07T22:43:45.849Z,20.24
2022-09-07T22:46:13.838Z,20.20
2022-09-07T22:48:41.446Z,20.16
2022-09-07T22:51:09.287Z,20.13
2022-09-07T22:53:39.118Z,20.14
2022-09-07T22:56:11.309Z,20.03
2022-09-07T22:58:38.630Z,19.99
2022-09-07T23:01:06.406Z,19.92
2022-09-07T23:03:34.987Z,19.88
2022-09-07T23:06:01.978Z,19.74
2022-09-07T23:08:29.173Z,19.69
2022-09-07T23:10:56.125Z,19.71
2022-09-07T23:13:22.622Z,19.66
2022-09-07T23:15:49.781Z,19.66
2022-09-07T23:18:18.266Z,19.59
2022-09-07T23:20:45.258Z,19.56
2022-09-07T23:23:13.400Z,19.54
2022-09-07T23:25:41.561Z,19.55
2022-09-07T23:28:12.327Z,19.55
2022-09-07T23:30:42.332Z,19.52
2022-09-07T23:33:08.867Z,19.48
2022-09-07T23:35:35.355Z,19.38
2022-09-07T23:38:02.060Z,19.32
2022-09-07T23:40:30.485Z,19.33
2022-09-07T23:42:57.305Z,19.30
2022-09-07T23:45:24.427Z,19.23
2022-09-07T23:47:50.937Z,19.21
2022-09-07T23:50:17.935Z,19.17
2022-09-07T23:52:44.442Z,19.16
2022-09-07T23:55:11.614Z,19.23
2022-09-07T23:57:38.920Z,19.20
